createdAt,value
2018-09-19T00:00:33.790Z,0
2018-09-19T00:01:43.874Z,0
2018-09-19T00:02:53.698Z,0
2018-09-19T00:04:03.776Z,0
2018-09-19T00:05:13.600Z,0
2018-09-19T00:06:23.206Z,0
2018-09-19T00:07:33.038Z,0
2018-09-19T00:08:42.867Z,0
2018-09-19T00:09:53.019Z,0
2018-09-19T00:11:03.235Z,0
2018-09-19T00:12:12.780Z,0
2018-09-19T00:13:22.869Z,0
2018-09-19T00:14:32.685Z,0
2018-09-19T00:15:42.806Z,0
2018-09-19T00:16:52.621Z,0
2018-09-19T00:18:02.455Z,0
2018-09-19T00:19:12.289Z,0
2018-09-19T00:20:23.069Z,0
2018-09-19T00:21:33.159Z,0
2018-09-19T00:22:43.252Z,0
2018-09-19T00:23:53.326Z,0
2018-09-19T00:25:04.634Z,0
2018-09-19T00:26:14.470Z,0
2018-09-19T00:27:24.725Z,0
2018-09-19T00:28:34.582Z,0
2018-09-19T00:29:44.703Z,0
2018-09-19T00:30:54.779Z,0
2018-09-19T00:32:04.625Z,0
2018-09-19T00:33:14.724Z,0
2018-09-19T00:34:24.818Z,0
2018-09-19T00:35:34.646Z,0
2018-09-19T00:36:44.458Z,0
2018-09-19T00:37:54.573Z,0
2018-09-19T00:39:04.716Z,0
2018-09-19T00:40:14.798Z,0
2018-09-19T00:41:24.684Z,0
2018-09-19T00:42:34.780Z,0
2018-09-19T00:43:44.874Z,0
2018-09-19T00:44:54.974Z,0
2018-09-19T00:46:04.801Z,0
2018-09-19T00:47:14.892Z,0
2018-09-19T00:48:24.989Z,0
2018-09-19T00:49:34.807Z,0
2018-09-19T00:50:44.647Z,0
2018-09-19T00:51:54.751Z,0
2018-09-19T00:53:04.577Z,0
2018-09-19T00:54:14.905Z,0
2018-09-19T00:55:24.984Z,0
2018-09-19T00:56:35.076Z,0
2018-09-19T00:57:45.173Z,0
2018-09-19T00:58:55.316Z,0
2018-09-19T01:00:08.435Z,0
2018-09-19T01:01:18.572Z,0
2018-09-19T01:02:28.665Z,0
2018-09-19T01:03:38.870Z,0
2018-09-19T01:04:48.717Z,0
2018-09-19T01:05:58.502Z,0
2018-09-19T01:07:08.655Z,0
2018-09-19T01:08:18.758Z,0
2018-09-19T01:09:28.885Z,0
2018-09-19T01:10:38.723Z,0
2018-09-19T01:11:48.884Z,0
2018-09-19T01:12:58.990Z,0
2018-09-19T01:14:08.600Z,0
2018-09-19T01:15:18.688Z,0
2018-09-19T01:16:28.771Z,0
2018-09-19T01:17:38.615Z,0
2018-09-19T01:18:48.423Z,0
2018-09-19T01:19:58.485Z,0
2018-09-19T01:21:08.314Z,0
2018-09-19T01:22:18.427Z,0
2018-09-19T01:23:28.502Z,0
2018-09-19T01:24:38.377Z,0
2018-09-19T01:25:48.449Z,0
2018-09-19T01:26:58.538Z,0
2018-09-19T01:28:10.440Z,0
2018-09-19T01:29:20.519Z,0
2018-09-19T01:30:30.077Z,0
2018-09-19T01:31:40.175Z,0
2018-09-19T01:32:50.272Z,0
2018-09-19T01:34:00.365Z,0
2018-09-19T01:35:10.469Z,0
2018-09-19T01:36:20.563Z,0
2018-09-19T01:37:30.634Z,0
2018-09-19T01:38:40.714Z,0
2018-09-19T01:39:50.780Z,0
2018-09-19T01:41:00.588Z,0
2018-09-19T01:42:10.716Z,0
2018-09-19T01:43:20.821Z,0
2018-09-19T01:44:30.940Z,0
2018-09-19T01:45:41.065Z,0
2018-09-19T01:46:51.165Z,0
2018-09-19T01:48:00.980Z,0
2018-09-19T01:49:11.079Z,0
2018-09-19T01:50:21.187Z,0
2018-09-19T01:51:31.274Z,0
2018-09-19T01:52:41.379Z,0
2018-09-19T01:53:51.232Z,0
2018-09-19T01:55:02.420Z,0
2018-09-19T01:56:12.539Z,0
2018-09-19T01:57:22.625Z,0
2018-09-19T01:58:32.457Z,0
2018-09-19T01:59:42.028Z,0
2018-09-19T02:00:52.182Z,0
2018-09-19T02:02:02.288Z,0
2018-09-19T02:03:12.126Z,0
2018-09-19T02:04:21.961Z,0
2018-09-19T02:05:32.057Z,0
2018-09-19T02:06:41.868Z,0
2018-09-19T02:07:51.981Z,0
2018-09-19T02:09:01.802Z,0
2018-09-19T02:10:12.082Z,0
2018-09-19T02:11:22.162Z,0
2018-09-19T02:12:32.328Z,0
2018-09-19T02:13:42.399Z,0
2018-09-19T02:14:52.232Z,0
2018-09-19T02:16:02.304Z,0
2018-09-19T02:17:12.143Z,0
2018-09-19T02:18:22.289Z,0
2018-09-19T02:19:32.409Z,0
2018-09-19T02:20:42.535Z,0
2018-09-19T02:21:52.646Z,0
2018-09-19T02:23:02.784Z,0
2018-09-19T02:24:12.921Z,0
2018-09-19T02:25:23.005Z,0
2018-09-19T02:26:32.829Z,0
2018-09-19T02:27:42.642Z,0
2018-09-19T02:28:52.701Z,0
2018-09-19T02:30:07.401Z,0
2018-09-19T02:31:16.996Z,0
2018-09-19T02:32:26.825Z,0
2018-09-19T02:33:36.384Z,0
2018-09-19T02:34:46.502Z,0
2018-09-19T02:35:56.590Z,0
2018-09-19T02:37:07.001Z,0
2018-09-19T02:38:16.830Z,0
2018-09-19T02:39:26.910Z,0
2018-09-19T02:40:36.987Z,0
2018-09-19T02:41:47.090Z,0
2018-09-19T02:42:57.196Z,0
2018-09-19T02:44:07.094Z,0
2018-09-19T02:45:17.197Z,0
2018-09-19T02:46:27.090Z,0
2018-09-19T02:47:36.731Z,0
2018-09-19T02:48:46.591Z,0
2018-09-19T02:49:56.398Z,0
2018-09-19T02:51:06.518Z,0
2018-09-19T02:52:16.644Z,0
2018-09-19T02:53:26.489Z,0
2018-09-19T02:54:37.113Z,0
2018-09-19T02:55:47.210Z,0
2018-09-19T02:56:56.760Z,0
2018-09-19T02:58:08.012Z,0
2018-09-19T02:59:18.215Z,0
2018-09-19T03:00:28.296Z,0
2018-09-19T03:01:38.118Z,0
2018-09-19T03:02:48.247Z,0
2018-09-19T03:34:55.608Z,0
2018-09-19T03:36:05.676Z,0
2018-09-19T03:37:15.794Z,0
2018-09-19T03:38:25.874Z,0
2018-09-19T03:39:35.944Z,0
2018-09-19T03:40:45.532Z,0
2018-09-19T03:41:55.623Z,0
2018-09-19T03:43:05.173Z,0
2018-09-19T03:44:15.276Z,0
2018-09-19T03:45:25.358Z,0
2018-09-19T03:46:35.441Z,0
2018-09-19T03:47:45.274Z,0
2018-09-19T03:48:55.104Z,0
2018-09-19T03:50:08.214Z,0
2018-09-19T03:51:18.296Z,0
2018-09-19T03:52:28.497Z,0
2018-09-19T03:53:38.571Z,0
2018-09-19T03:54:48.696Z,0
2018-09-19T03:55:58.508Z,0
2018-09-19T03:57:08.605Z,0
2018-09-19T03:58:18.940Z,0
2018-09-19T03:59:29.104Z,0
2018-09-19T04:00:38.665Z,0
2018-09-19T04:01:48.758Z,0
2018-09-19T04:02:58.863Z,0
2018-09-19T04:04:09.019Z,0
2018-09-19T04:05:19.113Z,0
2018-09-19T04:06:29.268Z,0
2018-09-19T04:07:39.137Z,0
2018-09-19T04:08:49.225Z,0
2018-09-19T04:09:59.350Z,0
2018-09-19T04:11:09.446Z,0
2018-09-19T04:12:19.573Z,0
2018-09-19T04:13:29.695Z,0
2018-09-19T04:14:39.816Z,0
2018-09-19T04:15:49.667Z,0
2018-09-19T04:16:59.775Z,0
2018-09-19T04:18:09.935Z,0
2018-09-19T04:19:19.757Z,0
2018-09-19T04:20:29.846Z,0
2018-09-19T04:21:39.974Z,0
2018-09-19T04:22:50.075Z,0
2018-09-19T04:23:59.921Z,0
2018-09-19T04:25:10.003Z,0
2018-09-19T04:26:19.845Z,0
2018-09-19T04:27:29.996Z,0
2018-09-19T04:28:40.081Z,0
2018-09-19T04:29:50.161Z,0
2018-09-19T04:31:00.314Z,0
2018-09-19T04:32:12.928Z,0
2018-09-19T04:33:23.045Z,0
2018-09-19T04:34:33.127Z,0
2018-09-19T04:35:43.226Z,0
2018-09-19T04:36:53.360Z,5
2018-09-19T04:38:05.393Z,5
2018-09-19T04:39:15.234Z,5
2018-09-19T04:40:25.340Z,5
2018-09-19T04:41:35.179Z,5
2018-09-19T04:42:45.009Z,5
2018-09-19T04:43:55.086Z,5
2018-09-19T04:45:05.540Z,10
2018-09-19T04:46:15.689Z,10
2018-09-19T04:47:25.540Z,10
2018-09-19T04:48:35.617Z,10
2018-09-19T04:49:45.752Z,10
2018-09-19T04:50:55.835Z,15
2018-09-19T04:52:05.958Z,15
2018-09-19T04:53:15.780Z,15
2018-09-19T04:54:25.916Z,15
2018-09-19T04:55:36.008Z,20
2018-09-19T04:56:46.176Z,20
2018-09-19T04:57:56.014Z,20
2018-09-19T04:59:06.109Z,20
2018-09-19T05:00:16.203Z,25
2018-09-19T05:01:26.020Z,25
2018-09-19T05:02:35.608Z,25
2018-09-19T05:03:45.712Z,25
2018-09-19T05:04:55.797Z,25
2018-09-19T05:06:05.965Z,30
2018-09-19T05:07:16.263Z,30
2018-09-19T05:08:25.880Z,30
2018-09-19T05:09:36.015Z,30
2018-09-19T05:10:46.117Z,35
2018-09-19T05:11:56.203Z,35
2018-09-19T05:13:06.305Z,35
2018-09-19T05:14:16.466Z,40
2018-09-19T05:15:26.030Z,40
2018-09-19T05:16:36.125Z,40
2018-09-19T05:17:46.228Z,40
2018-09-19T05:18:56.324Z,40
2018-09-19T05:20:06.475Z,45
2018-09-19T05:21:16.572Z,45
2018-09-19T05:22:26.650Z,55
2018-09-19T05:23:36.758Z,50
2018-09-19T05:24:46.871Z,55
2018-09-19T05:25:56.974Z,55
2018-09-19T05:27:07.057Z,55
2018-09-19T05:28:17.157Z,55
2018-09-19T05:29:27.011Z,55
2018-09-19T05:30:37.097Z,55
2018-09-19T05:31:47.951Z,55
2018-09-19T05:32:57.847Z,55
2018-09-19T05:34:08.452Z,55
2018-09-19T05:35:18.553Z,55
2018-09-19T05:36:28.645Z,55
2018-09-19T05:37:38.786Z,55
2018-09-19T05:38:48.870Z,55
2018-09-19T05:39:58.690Z,55
2018-09-19T05:41:08.778Z,55
2018-09-19T05:42:18.858Z,60
2018-09-19T05:43:28.966Z,60
2018-09-19T05:44:38.800Z,60
2018-09-19T05:45:48.344Z,65
2018-09-19T05:46:58.431Z,65
2018-09-19T05:48:10.266Z,70
2018-09-19T05:49:20.353Z,75
2018-09-19T05:50:30.161Z,75
2018-09-19T05:51:39.962Z,80
2018-09-19T05:52:49.786Z,80
2018-09-19T05:53:59.887Z,80
2018-09-19T05:55:10.029Z,80
2018-09-19T05:56:20.112Z,80
2018-09-19T05:57:30.211Z,80
2018-09-19T05:58:40.043Z,75
2018-09-19T05:59:50.135Z,75
2018-09-19T06:01:00.409Z,75
2018-09-19T06:02:10.498Z,75
2018-09-19T06:03:20.565Z,80
2018-09-19T06:04:30.661Z,80
2018-09-19T06:05:40.475Z,85
2018-09-19T06:06:50.614Z,90
2018-09-19T06:08:03.059Z,85
2018-09-19T06:09:13.171Z,90
2018-09-19T06:10:22.709Z,90
2018-09-19T06:11:32.783Z,90
2018-09-19T06:12:42.970Z,95
2018-09-19T06:13:52.745Z,95
2018-09-19T06:15:03.772Z,100
2018-09-19T06:16:13.936Z,100
2018-09-19T06:17:24.041Z,110
2018-09-19T06:18:34.136Z,115
2018-09-19T06:19:44.205Z,120
2018-09-19T06:20:54.288Z,120
2018-09-19T06:22:04.360Z,120
2018-09-19T06:23:14.458Z,120
2018-09-19T06:24:24.550Z,120
2018-09-19T06:25:34.663Z,120
2018-09-19T06:26:44.486Z,120
2018-09-19T06:27:54.602Z,125
2018-09-19T06:29:05.402Z,125
2018-09-19T06:30:15.532Z,125
2018-09-19T06:31:25.635Z,115
2018-09-19T06:32:35.723Z,120
2018-09-19T06:33:45.953Z,115
2018-09-19T06:34:56.086Z,110
2018-09-19T06:36:06.185Z,120
2018-09-19T06:37:16.640Z,120
2018-09-19T06:38:26.547Z,120
2018-09-19T06:39:36.428Z,120
2018-09-19T06:40:47.316Z,125
2018-09-19T06:41:57.656Z,125
2018-09-19T06:43:07.839Z,125
2018-09-19T06:44:17.937Z,125
2018-09-19T06:45:28.084Z,130
2018-09-19T06:46:38.157Z,130
2018-09-19T06:47:48.300Z,120
2018-09-19T06:48:58.151Z,125
2018-09-19T06:50:08.264Z,130
2018-09-19T06:51:18.372Z,130
2018-09-19T06:52:29.408Z,125
2018-09-19T06:53:39.549Z,125
2018-09-19T06:54:49.629Z,135
2018-09-19T06:55:59.757Z,140
2018-09-19T06:57:10.094Z,140
2018-09-19T06:58:19.957Z,145
2018-09-19T06:59:30.089Z,150
2018-09-19T07:00:40.270Z,155
2018-09-19T07:01:50.075Z,160
2018-09-19T07:03:00.192Z,160
2018-09-19T07:04:10.265Z,160
2018-09-19T07:05:20.345Z,155
2018-09-19T07:06:30.439Z,150
2018-09-19T07:07:40.271Z,145
2018-09-19T07:08:50.364Z,145
2018-09-19T07:10:03.557Z,155
2018-09-19T07:11:13.667Z,150
2018-09-19T07:12:23.757Z,145
2018-09-19T07:13:33.564Z,150
2018-09-19T07:14:43.661Z,155
2018-09-19T07:15:53.482Z,160
2018-09-19T07:17:04.332Z,160
2018-09-19T07:18:14.149Z,185
2018-09-19T07:19:24.231Z,190
2018-09-19T07:20:34.337Z,195
2018-09-19T07:21:44.449Z,195
2018-09-19T07:22:54.554Z,200
2018-09-19T07:24:04.577Z,195
2018-09-19T07:25:15.269Z,200
2018-09-19T07:26:25.450Z,190
2018-09-19T07:27:35.546Z,185
2018-09-19T07:28:45.648Z,185
2018-09-19T07:29:55.804Z,160
2018-09-19T07:31:06.338Z,155
2018-09-19T07:32:15.907Z,150
2018-09-19T07:33:25.738Z,150
2018-09-19T07:34:35.625Z,150
2018-09-19T07:35:45.741Z,145
2018-09-19T07:36:55.850Z,145
2018-09-19T07:38:05.960Z,145
2018-09-19T07:39:16.083Z,145
2018-09-19T07:40:26.453Z,150
2018-09-19T07:41:36.403Z,160
2018-09-19T07:42:46.485Z,165
2018-09-19T07:43:56.298Z,165
2018-09-19T07:45:06.379Z,150
2018-09-19T07:46:16.475Z,165
2018-09-19T07:47:26.563Z,150
2018-09-19T07:48:36.659Z,155
2018-09-19T07:49:46.740Z,150
2018-09-19T07:50:56.557Z,150
2018-09-19T07:52:06.649Z,155
2018-09-19T07:53:16.763Z,170
2018-09-19T07:54:26.988Z,165
2018-09-19T07:55:37.098Z,170
2018-09-19T07:56:47.216Z,180
2018-09-19T07:57:57.097Z,170
2018-09-19T07:59:07.783Z,185
2018-09-19T08:00:17.632Z,185
2018-09-19T08:01:28.087Z,180
2018-09-19T08:02:38.225Z,195
2018-09-19T08:03:48.098Z,205
2018-09-19T08:04:58.215Z,200
2018-09-19T08:06:08.054Z,200
2018-09-19T08:07:18.188Z,215
2018-09-19T08:08:28.019Z,215
2018-09-19T08:09:38.087Z,215
2018-09-19T08:10:48.230Z,215
2018-09-19T08:11:58.405Z,215
2018-09-19T08:13:08.494Z,215
2018-09-19T08:14:18.324Z,220
2018-09-19T08:15:28.477Z,220
2018-09-19T08:16:38.578Z,210
2018-09-19T08:17:48.678Z,200
2018-09-19T08:18:58.508Z,200
2018-09-19T08:20:08.613Z,185
2018-09-19T08:21:18.718Z,190
2018-09-19T08:22:28.887Z,185
2018-09-19T08:23:38.806Z,180
2018-09-19T08:24:48.653Z,190
2018-09-19T08:25:58.770Z,185
2018-09-19T08:27:08.599Z,180
2018-09-19T08:28:18.733Z,185
2018-09-19T08:29:28.836Z,195
2018-09-19T08:30:38.955Z,205
2018-09-19T08:31:49.053Z,205
2018-09-19T08:32:58.889Z,205
2018-09-19T08:34:08.998Z,205
2018-09-19T08:35:19.090Z,200
2018-09-19T08:36:29.176Z,205
2018-09-19T08:37:39.267Z,210
2018-09-19T08:38:49.471Z,205
2018-09-19T08:39:59.571Z,210
2018-09-19T08:41:09.498Z,225
2018-09-19T08:42:19.643Z,220
2018-09-19T08:43:29.730Z,225
2018-09-19T08:44:39.806Z,230
2018-09-19T08:45:49.140Z,240
2018-09-19T08:46:59.253Z,235
2018-09-19T08:48:09.121Z,230
2018-09-19T08:49:19.234Z,240
2018-09-19T08:50:29.536Z,240
2018-09-19T08:51:39.458Z,225
2018-09-19T08:52:49.548Z,220
2018-09-19T08:53:59.435Z,215
2018-09-19T08:55:09.527Z,200
2018-09-19T08:56:19.368Z,195
2018-09-19T08:57:29.486Z,190
2018-09-19T08:58:39.585Z,195
2018-09-19T08:59:49.688Z,200
2018-09-19T09:00:59.801Z,200
2018-09-19T09:02:09.661Z,200
2018-09-19T09:03:19.494Z,200
2018-09-19T09:04:29.602Z,200
2018-09-19T09:05:39.753Z,200
2018-09-19T09:06:49.859Z,210
2018-09-19T09:07:59.800Z,220
2018-09-19T09:09:09.662Z,220
2018-09-19T09:10:19.758Z,210
2018-09-19T09:11:30.019Z,220
2018-09-19T09:12:40.465Z,230
2018-09-19T09:13:50.117Z,225
2018-09-19T09:15:00.582Z,230
2018-09-19T09:16:10.682Z,220
2018-09-19T09:17:20.777Z,200
2018-09-19T09:18:30.906Z,215
2018-09-19T09:19:40.745Z,225
2018-09-19T09:20:50.898Z,230
2018-09-19T09:22:00.716Z,225
2018-09-19T09:23:11.036Z,230
2018-09-19T09:24:21.158Z,230
2018-09-19T09:25:31.322Z,195
2018-09-19T09:26:41.188Z,205
2018-09-19T09:27:51.305Z,205
2018-09-19T09:29:03.862Z,185
2018-09-19T09:30:14.692Z,185
2018-09-19T09:31:25.033Z,180
2018-09-19T09:32:35.151Z,200
2018-09-19T09:33:45.268Z,215
2018-09-19T09:34:55.169Z,215
2018-09-19T09:36:05.168Z,220
2018-09-19T09:37:15.338Z,205
2018-09-19T09:38:25.179Z,215
2018-09-19T09:39:34.999Z,215
2018-09-19T09:40:45.407Z,210
2018-09-19T09:41:55.523Z,210
2018-09-19T09:43:05.417Z,215
2018-09-19T09:44:15.253Z,215
2018-09-19T09:45:25.405Z,210
2018-09-19T09:46:35.519Z,210
2018-09-19T09:47:45.081Z,210
2018-09-19T09:48:54.919Z,205
2018-09-19T09:50:05.163Z,210
2018-09-19T09:51:15.251Z,180
2018-09-19T09:52:25.385Z,200
2018-09-19T09:53:35.766Z,185
2018-09-19T09:54:45.619Z,190
2018-09-19T09:55:55.709Z,185
2018-09-19T09:57:06.250Z,165
2018-09-19T09:58:16.446Z,180
2018-09-19T09:59:26.391Z,190
2018-09-19T10:00:36.471Z,195
2018-09-19T10:01:46.557Z,195
2018-09-19T10:02:56.645Z,195
2018-09-19T10:04:06.737Z,205
2018-09-19T10:05:16.553Z,205
2018-09-19T10:06:26.752Z,195
2018-09-19T10:07:36.556Z,175
2018-09-19T10:08:46.192Z,210
2018-09-19T10:09:56.287Z,195
2018-09-19T10:11:06.123Z,175
2018-09-19T10:12:15.969Z,210
2018-09-19T10:13:25.520Z,185
2018-09-19T10:14:35.681Z,180
2018-09-19T10:15:45.779Z,230
2018-09-19T10:16:55.872Z,230
2018-09-19T10:18:06.007Z,230
2018-09-19T10:19:16.108Z,240
2018-09-19T10:20:26.271Z,225
2018-09-19T10:21:36.091Z,230
2018-09-19T10:22:46.189Z,220
2018-09-19T10:23:56.002Z,220
2018-09-19T10:25:06.740Z,250
2018-09-19T10:26:16.885Z,260
2018-09-19T10:27:26.715Z,240
2018-09-19T10:28:36.803Z,275
2018-09-19T10:29:47.008Z,275
2018-09-19T10:30:57.131Z,260
2018-09-19T10:32:07.270Z,250
2018-09-19T10:33:17.354Z,250
2018-09-19T10:34:27.435Z,240
2018-09-19T10:35:37.570Z,240
2018-09-19T10:36:47.731Z,240
2018-09-19T10:37:57.839Z,265
2018-09-19T10:39:07.951Z,230
2018-09-19T10:40:18.150Z,205
2018-09-19T10:41:28.271Z,200
2018-09-19T10:42:38.382Z,200
2018-09-19T10:43:48.558Z,205
2018-09-19T10:44:58.458Z,210
2018-09-19T10:46:08.554Z,275
2018-09-19T10:47:18.387Z,280
2018-09-19T10:48:28.517Z,280
2018-09-19T10:49:39.053Z,280
2018-09-19T10:50:48.615Z,270
2018-09-19T10:51:58.711Z,250
2018-09-19T10:53:08.819Z,200
2018-09-19T10:54:18.938Z,250
2018-09-19T10:55:29.077Z,260
2018-09-19T10:56:38.897Z,260
2018-09-19T10:57:48.753Z,270
2018-09-19T10:58:58.575Z,270
2018-09-19T11:00:08.680Z,280
2018-09-19T11:01:18.500Z,275
2018-09-19T11:02:28.610Z,275
2018-09-19T11:03:38.449Z,275
2018-09-19T11:04:48.569Z,270
2018-09-19T11:05:58.398Z,275
2018-09-19T11:07:08.494Z,280
2018-09-19T11:08:18.670Z,270
2018-09-19T11:09:28.529Z,220
2018-09-19T11:10:38.126Z,210
2018-09-19T11:11:48.236Z,225
2018-09-19T11:12:58.392Z,250
2018-09-19T11:14:09.684Z,295
2018-09-19T11:15:19.532Z,300
2018-09-19T11:16:29.633Z,300
2018-09-19T11:17:39.473Z,290
2018-09-19T11:18:49.656Z,245
2018-09-19T11:19:59.793Z,220
2018-09-19T11:21:09.943Z,225
2018-09-19T11:22:20.042Z,220
2018-09-19T11:23:30.157Z,260
2018-09-19T11:24:40.001Z,210
2018-09-19T11:25:50.120Z,210
2018-09-19T11:27:00.337Z,275
2018-09-19T11:28:10.165Z,265
2018-09-19T11:29:20.292Z,270
2018-09-19T11:30:30.390Z,260
2018-09-19T11:31:40.535Z,185
2018-09-19T11:32:50.109Z,270
2018-09-19T11:34:00.359Z,270
2018-09-19T11:35:10.190Z,265
2018-09-19T11:36:20.084Z,255
2018-09-19T11:37:29.932Z,255
2018-09-19T11:38:39.958Z,240
2018-09-19T11:39:50.090Z,255
2018-09-19T11:41:00.330Z,260
2018-09-19T11:42:11.038Z,250
2018-09-19T11:43:21.240Z,240
2018-09-19T11:44:31.118Z,250
2018-09-19T11:45:41.208Z,235
2018-09-19T11:46:51.292Z,240
2018-09-19T11:48:01.378Z,245
2018-09-19T11:49:13.132Z,170
2018-09-19T11:50:23.260Z,160
2018-09-19T11:51:33.366Z,155
2018-09-19T11:52:43.447Z,155
2018-09-19T11:53:53.329Z,160
2018-09-19T11:55:03.426Z,160
2018-09-19T11:56:13.551Z,160
2018-09-19T11:57:23.714Z,155
2018-09-19T11:58:33.791Z,165
2018-09-19T11:59:43.760Z,235
2018-09-19T12:00:53.883Z,150
2018-09-19T12:02:04.397Z,210
2018-09-19T12:03:14.474Z,150
2018-09-19T12:04:24.552Z,220
2018-09-19T12:05:34.154Z,230
2018-09-19T12:06:44.258Z,235
2018-09-19T12:07:53.899Z,235
2018-09-19T12:09:03.737Z,240
2018-09-19T12:10:14.517Z,245
2018-09-19T12:11:23.828Z,245
2018-09-19T12:12:33.944Z,255
2018-09-19T12:13:44.028Z,255
2018-09-19T12:14:53.850Z,250
2018-09-19T12:16:05.646Z,240
2018-09-19T12:17:14.997Z,235
2018-09-19T12:18:25.066Z,235
2018-09-19T12:19:35.217Z,240
2018-09-19T12:20:45.358Z,175
2018-09-19T12:21:55.452Z,235
2018-09-19T12:23:05.270Z,245
2018-09-19T12:24:15.404Z,245
2018-09-19T12:25:25.488Z,235
2018-09-19T12:26:35.522Z,235
2018-09-19T12:27:45.671Z,240
2018-09-19T12:28:55.541Z,230
2018-09-19T12:30:05.637Z,155
2018-09-19T12:31:15.464Z,155
2018-09-19T12:32:25.293Z,145
2018-09-19T12:33:35.518Z,145
2018-09-19T12:34:45.660Z,155
2018-09-19T12:35:55.815Z,205
2018-09-19T12:37:05.916Z,150
2018-09-19T12:38:16.005Z,145
2018-09-19T12:39:26.136Z,160
2018-09-19T12:40:36.340Z,145
2018-09-19T12:41:46.415Z,150
2018-09-19T12:42:56.517Z,145
2018-09-19T12:44:06.721Z,170
2018-09-19T12:45:16.811Z,205
2018-09-19T12:46:26.655Z,220
2018-09-19T12:47:36.495Z,215
2018-09-19T12:48:46.324Z,215
2018-09-19T12:49:56.155Z,215
2018-09-19T12:51:05.997Z,165
2018-09-19T12:52:16.113Z,225
2018-09-19T12:53:25.931Z,205
2018-09-19T12:54:36.064Z,180
2018-09-19T12:55:46.151Z,180
2018-09-19T12:56:55.984Z,185
2018-09-19T12:58:06.677Z,165
2018-09-19T12:59:16.491Z,160
2018-09-19T13:00:26.408Z,160
2018-09-19T13:01:36.544Z,175
2018-09-19T13:02:46.722Z,220
2018-09-19T13:03:56.831Z,220
2018-09-19T13:05:06.656Z,210
2018-09-19T13:06:16.544Z,220
2018-09-19T13:07:26.627Z,225
2018-09-19T13:08:36.849Z,225
2018-09-19T13:09:46.971Z,225
2018-09-19T13:10:57.068Z,220
2018-09-19T13:12:07.266Z,210
2018-09-19T13:13:17.364Z,205
2018-09-19T13:14:27.464Z,160
2018-09-19T13:15:37.319Z,200
2018-09-19T13:16:47.407Z,160
2018-09-19T13:17:57.569Z,165
2018-09-19T13:19:07.220Z,155
2018-09-19T13:20:17.094Z,205
2018-09-19T13:21:27.196Z,150
2018-09-19T13:22:37.019Z,170
2018-09-19T13:23:47.159Z,185
2018-09-19T13:24:57.285Z,150
2018-09-19T13:26:07.361Z,145
2018-09-19T13:27:17.571Z,140
2018-09-19T13:28:27.406Z,135
2018-09-19T13:29:37.662Z,135
2018-09-19T13:30:47.749Z,195
2018-09-19T13:31:57.848Z,190
2018-09-19T13:33:07.961Z,135
2018-09-19T13:34:18.060Z,125
2018-09-19T13:35:27.884Z,130
2018-09-19T13:36:37.449Z,125
2018-09-19T13:37:47.275Z,130
2018-09-19T13:38:57.375Z,140
2018-09-19T13:40:10.534Z,150
2018-09-19T13:41:20.666Z,135
2018-09-19T13:42:30.482Z,130
2018-09-19T13:43:40.589Z,120
2018-09-19T13:44:50.513Z,115
2018-09-19T13:46:01.231Z,115
2018-09-19T13:47:12.563Z,115
2018-09-19T13:48:22.711Z,120
2018-09-19T13:49:32.595Z,115
2018-09-19T13:50:42.676Z,120
2018-09-19T13:51:52.778Z,120
2018-09-19T13:53:02.916Z,130
2018-09-19T13:54:12.783Z,120
2018-09-19T13:55:22.597Z,120
2018-09-19T13:56:32.708Z,120
2018-09-19T13:57:42.891Z,120
2018-09-19T13:58:52.946Z,160
2018-09-19T14:00:05.548Z,135
2018-09-19T14:01:15.633Z,170
2018-09-19T14:02:25.737Z,165
2018-09-19T14:03:35.870Z,170
2018-09-19T14:04:46.031Z,125
2018-09-19T14:05:55.925Z,120
2018-09-19T14:07:06.011Z,120
2018-09-19T14:08:16.141Z,140
2018-09-19T14:09:25.980Z,115
2018-09-19T14:10:36.260Z,115
2018-09-19T14:11:46.649Z,110
2018-09-19T14:12:56.821Z,105
2018-09-19T14:14:06.919Z,105
2018-09-19T14:15:16.835Z,100
2018-09-19T14:16:26.941Z,100
2018-09-19T14:17:37.048Z,100
2018-09-19T14:18:47.139Z,100
2018-09-19T14:19:57.256Z,100
2018-09-19T14:21:07.403Z,100
2018-09-19T14:22:17.551Z,100
2018-09-19T14:23:27.646Z,100
2018-09-19T14:24:37.746Z,100
2018-09-19T14:25:47.840Z,100
2018-09-19T14:26:57.698Z,95
2018-09-19T14:28:10.864Z,95
2018-09-19T14:29:20.701Z,95
2018-09-19T14:30:30.806Z,95
2018-09-19T14:31:40.875Z,100
2018-09-19T14:32:51.005Z,100
2018-09-19T14:34:00.881Z,100
2018-09-19T14:35:10.990Z,100
2018-09-19T14:36:20.604Z,100
2018-09-19T14:37:30.730Z,100
2018-09-19T14:38:40.839Z,100
2018-09-19T14:39:50.992Z,105
2018-09-19T14:41:01.132Z,105
2018-09-19T14:42:11.109Z,105
2018-09-19T14:43:21.198Z,105
2018-09-19T14:44:31.312Z,105
2018-09-19T14:45:41.510Z,100
2018-09-19T14:46:51.722Z,100
2018-09-19T14:48:01.573Z,100
2018-09-19T14:49:11.681Z,100
2018-09-19T14:50:21.509Z,100
2018-09-19T14:51:31.678Z,100
2018-09-19T14:52:41.787Z,100
2018-09-19T14:53:51.892Z,95
2018-09-19T14:55:02.010Z,95
2018-09-19T14:56:12.116Z,95
2018-09-19T14:57:21.946Z,90
2018-09-19T14:58:31.790Z,90
2018-09-19T14:59:42.011Z,85
2018-09-19T15:00:51.860Z,85
2018-09-19T15:02:01.977Z,85
2018-09-19T15:03:12.096Z,85
2018-09-19T15:04:22.273Z,80
2018-09-19T15:05:32.361Z,80
2018-09-19T15:06:42.447Z,80
2018-09-19T15:07:52.634Z,80
2018-09-19T15:09:02.231Z,80
2018-09-19T15:10:11.654Z,80
2018-09-19T15:11:21.814Z,80
2018-09-19T15:12:31.947Z,80
2018-09-19T15:13:42.041Z,80
2018-09-19T15:14:52.243Z,80
2018-09-19T15:16:02.345Z,85
2018-09-19T15:17:12.936Z,80
2018-09-19T15:18:23.160Z,90
2018-09-19T15:19:32.972Z,95
2018-09-19T15:20:42.839Z,100
2018-09-19T15:21:52.918Z,100
2018-09-19T15:23:05.392Z,100
2018-09-19T15:24:15.606Z,105
2018-09-19T15:25:25.498Z,105
2018-09-19T15:26:35.448Z,110
2018-09-19T15:27:45.564Z,110
2018-09-19T15:28:55.770Z,110
2018-09-19T15:30:08.063Z,105
2018-09-19T15:31:18.153Z,105
2018-09-19T15:32:27.987Z,100
2018-09-19T15:33:37.892Z,100
2018-09-19T15:34:47.718Z,95
2018-09-19T15:35:57.902Z,90
2018-09-19T15:37:08.535Z,85
2018-09-19T15:38:18.984Z,85
2018-09-19T15:39:28.516Z,85
2018-09-19T15:40:38.608Z,85
2018-09-19T15:41:48.737Z,85
2018-09-19T15:42:58.569Z,85
2018-09-19T15:44:08.730Z,85
2018-09-19T15:45:18.845Z,80
2018-09-19T15:46:28.965Z,80
2018-09-19T15:47:39.074Z,75
2018-09-19T15:48:49.178Z,70
2018-09-19T15:49:59.015Z,70
2018-09-19T15:51:08.866Z,65
2018-09-19T15:52:18.988Z,65
2018-09-19T15:53:29.061Z,65
2018-09-19T15:54:39.239Z,60
2018-09-19T15:55:49.548Z,60
2018-09-19T15:56:59.658Z,60
2018-09-19T15:58:12.216Z,55
2018-09-19T15:59:22.112Z,55
2018-09-19T16:00:32.261Z,50
2018-09-19T16:01:42.351Z,50
2018-09-19T16:02:52.440Z,50
2018-09-19T16:04:02.275Z,50
2018-09-19T16:05:12.118Z,50
2018-09-19T16:06:22.521Z,50
2018-09-19T16:07:33.087Z,45
2018-09-19T16:08:43.032Z,45
2018-09-19T16:09:53.131Z,45
2018-09-19T16:11:03.216Z,45
2018-09-19T16:12:13.569Z,40
2018-09-19T16:13:23.815Z,40
2018-09-19T16:14:33.902Z,40
2018-09-19T16:15:43.999Z,40
2018-09-19T16:16:54.109Z,40
2018-09-19T16:18:05.196Z,35
2018-09-19T16:19:15.295Z,35
2018-09-19T16:20:25.403Z,35
2018-09-19T16:21:35.527Z,30
2018-09-19T16:22:45.632Z,30
2018-09-19T16:23:55.732Z,30
2018-09-19T16:25:06.041Z,25
2018-09-19T16:26:16.156Z,25
2018-09-19T16:27:26.252Z,20
2018-09-19T16:28:36.360Z,20
2018-09-19T16:29:46.518Z,20
2018-09-19T16:30:56.721Z,20
2018-09-19T16:32:06.859Z,15
2018-09-19T16:33:16.996Z,15
2018-09-19T16:34:26.838Z,15
2018-09-19T16:35:36.940Z,15
2018-09-19T16:36:47.085Z,15
2018-09-19T16:37:57.314Z,15
2018-09-19T16:39:07.558Z,10
2018-09-19T16:40:17.170Z,10
2018-09-19T16:41:27.272Z,10
2018-09-19T16:42:37.450Z,15
2018-09-19T16:43:47.539Z,15
2018-09-19T16:44:57.364Z,15
2018-09-19T16:46:07.618Z,10
2018-09-19T16:47:17.520Z,10
2018-09-19T16:48:27.743Z,10
2018-09-19T16:49:37.876Z,5
2018-09-19T16:50:47.982Z,5
2018-09-19T16:51:58.114Z,5
2018-09-19T16:53:08.195Z,5
2018-09-19T16:54:18.437Z,5
2018-09-19T16:55:28.534Z,5
2018-09-19T16:56:38.645Z,5
2018-09-19T16:57:48.761Z,5
2018-09-19T16:58:59.279Z,0
2018-09-19T17:00:10.635Z,0
2018-09-19T17:01:20.744Z,0